createdAt,value
2023-01-11T00:04:03.695Z,99933.00
2023-01-11T00:09:05.889Z,99938.72
2023-01-11T00:14:07.946Z,99940.00
2023-01-11T00:19:10.030Z,99920.97
2023-01-11T00:24:12.157Z,99923.22
2023-01-11T00:29:14.253Z,99953.59
2023-01-11T00:34:16.317Z,99931.13
2023-01-11T00:39:18.619Z,99962.81
2023-01-11T00:44:39.348Z,99972.06
2023-01-11T00:49:42.233Z,99979.44
2023-01-11T00:54:44.381Z,99963.78
2023-01-11T00:59:47.089Z,99982.50
2023-01-11T01:04:49.274Z,99999.38
2023-01-11T01:09:51.531Z,99986.28
2023-01-11T01:14:53.611Z,99984.03
2023-01-11T01:19:55.788Z,100006.47
2023-01-11T01:24:57.844Z,100001.84
2023-01-11T01:29:59.934Z,99990.97
2023-01-11T01:35:02.235Z,100021.50
2023-01-11T01:40:05.387Z,100009.88
2023-01-11T01:45:27.894Z,100035.47
2023-01-11T01:50:37.518Z,100035.91
2023-01-11T01:55:45.155Z,100031.75
2023-01-11T02:00:47.505Z,99988.69
2023-01-11T02:05:52.262Z,99996.97
2023-01-11T02:10:55.552Z,100025.19
2023-01-11T02:16:09.957Z,100015.50
2023-01-11T02:21:32.937Z,100028.81
2023-01-11T02:26:59.249Z,100022.63
2023-01-11T02:32:11.988Z,100019.19
2023-01-11T02:37:25.272Z,100041.81
2023-01-11T02:43:04.616Z,99955.97
2023-01-11T02:48:32.120Z,100046.34
2023-01-11T02:53:49.100Z,100044.66
2023-01-11T02:58:53.440Z,100011.19
2023-01-11T03:03:56.453Z,100053.50
2023-01-11T03:09:07.680Z,100057.03
2023-01-11T03:14:21.707Z,100055.25
2023-01-11T03:19:55.977Z,100061.63
2023-01-11T03:25:38.417Z,100055.06
2023-01-11T03:31:20.605Z,100031.41
2023-01-11T03:36:30.627Z,100046.88
2023-01-11T03:41:38.621Z,100072.06
2023-01-11T03:46:47.569Z,100056.47
2023-01-11T03:51:51.544Z,100059.19
2023-01-11T03:57:33.016Z,100078.31
2023-01-11T04:02:39.509Z,100072.28
2023-01-11T04:07:41.751Z,100095.72
2023-01-11T04:12:47.356Z,100107.84
2023-01-11T04:17:49.480Z,100082.94
2023-01-11T04:22:51.631Z,100082.22
2023-01-11T04:27:53.721Z,100111.66
2023-01-11T04:32:58.932Z,100055.91
2023-01-11T04:38:01.114Z,100038.41
2023-01-11T04:43:03.426Z,100048.16
2023-01-11T04:48:05.955Z,100073.22
2023-01-11T04:53:08.103Z,100074.59
2023-01-11T04:58:10.369Z,100077.84
2023-01-11T05:03:12.527Z,100070.56
2023-01-11T05:08:14.619Z,100140.63
2023-01-11T05:13:16.939Z,100153.81
2023-01-11T05:18:19.110Z,100147.97
2023-01-11T05:23:21.251Z,100155.38
2023-01-11T05:28:23.329Z,100133.38
2023-01-11T05:33:25.670Z,100098.69
2023-01-11T05:38:28.418Z,100188.50
2023-01-11T05:43:31.659Z,100194.28
2023-01-11T05:48:33.827Z,100163.41
2023-01-11T05:53:35.974Z,100196.97
2023-01-11T05:58:38.280Z,100171.53
2023-01-11T06:03:40.625Z,100200.75
2023-01-11T06:08:42.837Z,100208.00
2023-01-11T06:13:44.973Z,100205.50
2023-01-11T06:18:49.425Z,100215.63
2023-01-11T06:23:52.029Z,100199.56
2023-01-11T06:28:54.252Z,100203.16
2023-01-11T06:33:56.426Z,100118.13
2023-01-11T06:38:59.278Z,100227.31
2023-01-11T06:44:01.476Z,100243.34
2023-01-11T06:49:03.832Z,100163.63
2023-01-11T06:54:06.160Z,100196.03
2023-01-11T06:59:08.356Z,100179.72
2023-01-11T07:04:10.654Z,100299.00
2023-01-11T07:09:12.921Z,100217.69
2023-01-11T07:14:15.490Z,100284.72
2023-01-11T07:19:18.506Z,100303.69
2023-01-11T07:24:20.770Z,100282.81
2023-01-11T07:29:23.018Z,100299.56
2023-01-11T07:34:25.779Z,100292.06
2023-01-11T07:39:42.129Z,100302.16
2023-01-11T07:44:45.176Z,100311.41
2023-01-11T07:49:47.243Z,100314.28
2023-01-11T07:54:49.379Z,100325.47
2023-01-11T07:59:51.599Z,100289.16
2023-01-11T08:04:53.771Z,100290.38
2023-01-11T08:09:56.035Z,100318.97
2023-01-11T08:14:58.124Z,100335.41
2023-01-11T08:20:00.250Z,100356.22
2023-01-11T08:25:02.353Z,100348.28
2023-01-11T08:30:04.901Z,100341.66
2023-01-11T08:35:07.684Z,100311.09
2023-01-11T08:40:10.344Z,100367.81
2023-01-11T08:45:12.628Z,100331.25
2023-01-11T08:50:17.873Z,100310.59
2023-01-11T08:55:20.684Z,100368.31
2023-01-11T09:00:22.909Z,100378.28
2023-01-11T09:05:25.143Z,100341.69
2023-01-11T09:10:27.583Z,100361.16
2023-01-11T09:15:30.109Z,100386.16
2023-01-11T09:20:32.219Z,100359.22
2023-01-11T09:25:34.505Z,100354.94
2023-01-11T09:30:39.265Z,100343.41
2023-01-11T09:35:42.978Z,100353.22
2023-01-11T09:41:19.840Z,100347.66
2023-01-11T09:46:23.332Z,100371.53
2023-01-11T09:51:33.812Z,100336.94
2023-01-11T09:56:46.687Z,100332.00
2023-01-11T10:02:12.499Z,100331.59
2023-01-11T10:07:43.835Z,100339.63
2023-01-11T10:18:48.836Z,100336.84
2023-01-11T10:23:53.922Z,100329.81
2023-01-11T10:29:17.790Z,100307.00
2023-01-11T10:34:56.559Z,100325.00
2023-01-11T10:40:01.648Z,100328.28
2023-01-11T10:45:17.069Z,100315.06
2023-01-11T10:50:47.315Z,100318.75
2023-01-11T10:56:03.812Z,100317.53
2023-01-11T11:01:12.852Z,100310.91
2023-01-11T11:06:35.764Z,100316.31
2023-01-11T11:11:53.364Z,100298.03
2023-01-11T11:17:25.125Z,100311.03
2023-01-11T11:22:27.720Z,100309.81
2023-01-11T11:27:39.640Z,100288.84
2023-01-11T11:32:52.029Z,100313.25
2023-01-11T11:37:55.732Z,100300.72
2023-01-11T11:43:19.467Z,100315.47
2023-01-11T11:48:22.555Z,100306.34
2023-01-11T11:53:31.100Z,100292.97
2023-01-11T11:58:33.390Z,100293.34
2023-01-11T12:03:35.649Z,100269.38
2023-01-11T12:08:37.911Z,100289.44
2023-01-11T12:13:42.676Z,100296.97
2023-01-11T12:18:45.038Z,100288.94
2023-01-11T12:23:47.988Z,100261.84
2023-01-11T12:29:14.447Z,100301.19
2023-01-11T12:34:16.583Z,100302.94
2023-01-11T12:39:18.713Z,100310.44
2023-01-11T12:44:36.258Z,100279.78
2023-01-11T12:50:01.005Z,100298.63
2023-01-11T12:55:03.124Z,100317.00
2023-01-11T13:00:27.239Z,100288.19
2023-01-11T13:05:38.997Z,100319.06
2023-01-11T13:10:43.877Z,100317.13
2023-01-11T13:15:54.114Z,100325.78
2023-01-11T13:21:26.270Z,100321.16
2023-01-11T13:26:39.579Z,100342.44
2023-01-11T13:31:45.045Z,100348.16
2023-01-11T13:36:56.335Z,100336.31
2023-01-11T13:42:11.107Z,100337.88
2023-01-11T13:47:33.360Z,100340.44
2023-01-11T13:52:45.658Z,100336.91
2023-01-11T13:57:58.814Z,100357.94
2023-01-11T14:03:28.283Z,100350.66
2023-01-11T14:09:00.910Z,100312.00
2023-01-11T14:14:21.705Z,100355.84
2023-01-11T14:19:28.716Z,100352.75
2023-01-11T14:24:36.367Z,100354.84
2023-01-11T14:29:52.701Z,100366.28
2023-01-11T14:35:07.963Z,100370.50
2023-01-11T14:40:18.928Z,100374.66
2023-01-11T14:45:35.984Z,100389.84
2023-01-11T14:50:47.468Z,100368.06
2023-01-11T14:55:49.764Z,100365.41
2023-01-11T15:00:54.827Z,100399.41
2023-01-11T15:06:03.220Z,100397.78
2023-01-11T15:11:23.195Z,100393.41
2023-01-11T15:16:43.915Z,100408.28
2023-01-11T15:21:50.959Z,100403.44
2023-01-11T15:26:54.180Z,100421.84
2023-01-11T15:32:02.412Z,100428.53
2023-01-11T15:37:18.938Z,100381.91
2023-01-11T15:42:53.280Z,100425.25
2023-01-11T15:48:34.061Z,100437.63
2023-01-11T15:54:01.814Z,100442.53
2023-01-11T15:59:31.956Z,100417.88
2023-01-11T16:04:53.633Z,100448.28
2023-01-11T16:10:15.071Z,100429.31
2023-01-11T16:15:25.613Z,100434.19
2023-01-11T16:20:29.205Z,100437.03
2023-01-11T16:25:38.688Z,100438.66
2023-01-11T16:30:41.492Z,100451.25
2023-01-11T16:35:43.941Z,100459.19
2023-01-11T16:40:51.400Z,100479.38
2023-01-11T16:45:54.839Z,100485.41
2023-01-11T16:51:10.207Z,100495.03
2023-01-11T16:56:22.982Z,100494.31
2023-01-11T17:01:25.157Z,100502.19
2023-01-11T17:06:27.269Z,100501.16
2023-01-11T17:11:41.935Z,100470.59
2023-01-11T17:16:47.650Z,100498.97
2023-01-11T17:21:57.018Z,100459.94
2023-01-11T17:27:02.314Z,100472.63
2023-01-11T17:32:07.544Z,100495.91
2023-01-11T17:37:15.876Z,100475.53
2023-01-11T17:42:37.428Z,100497.50
2023-01-11T17:47:41.864Z,100505.91
2023-01-11T17:52:54.204Z,100502.97
2023-01-11T17:58:11.080Z,100521.91
2023-01-11T18:03:18.856Z,100479.72
2023-01-11T18:08:22.808Z,100526.81
2023-01-11T18:13:35.022Z,100529.06
2023-01-11T18:18:42.043Z,100531.28
2023-01-11T18:23:44.330Z,100507.00
2023-01-11T18:28:46.434Z,100534.72
2023-01-11T18:33:48.608Z,100535.84
2023-01-11T18:38:50.888Z,100517.41
2023-01-11T18:43:54.020Z,100545.34
2023-01-11T18:48:56.236Z,100530.44
2023-01-11T18:53:58.348Z,100531.84
2023-01-11T18:59:00.409Z,100562.91
2023-01-11T19:04:02.472Z,100552.38
2023-01-11T19:09:04.719Z,100531.25
2023-01-11T19:14:06.877Z,100531.75
2023-01-11T19:19:09.046Z,100546.56
2023-01-11T19:24:11.385Z,100549.06
2023-01-11T19:29:17.570Z,100556.34
2023-01-11T19:34:20.208Z,100595.75
2023-01-11T19:39:22.326Z,100593.91
2023-01-11T19:44:26.982Z,100611.00
2023-01-11T19:49:30.270Z,100606.94
2023-01-11T19:54:32.446Z,100599.25
2023-01-11T19:59:34.611Z,100607.06
2023-01-11T20:04:37.592Z,100610.97
2023-01-11T20:09:39.839Z,100603.97
2023-01-11T20:14:44.433Z,100602.13
2023-01-11T20:19:47.188Z,100589.59
2023-01-11T20:24:49.372Z,100619.50
2023-01-11T20:29:51.441Z,100600.34
2023-01-11T20:34:54.081Z,100607.88
2023-01-11T20:39:56.201Z,100613.81
2023-01-11T20:44:58.396Z,100625.38
2023-01-11T20:50:00.527Z,100604.03
2023-01-11T20:55:02.780Z,100622.09
2023-01-11T21:00:06.337Z,100648.00
2023-01-11T21:05:09.511Z,100579.25
2023-01-11T21:10:12.135Z,100643.72
2023-01-11T21:15:14.300Z,100660.31
2023-01-11T21:20:17.209Z,100624.06
2023-01-11T21:25:19.298Z,100620.84
2023-01-11T21:30:22.958Z,100647.25
2023-01-11T21:35:25.317Z,100673.16
2023-01-11T21:40:27.524Z,100660.81
2023-01-11T21:45:29.689Z,100657.66
2023-01-11T21:50:31.801Z,100684.25
2023-01-11T21:55:33.876Z,100678.69
2023-01-11T22:00:36.061Z,100671.31
2023-01-11T22:05:38.177Z,100662.94
2023-01-11T22:10:40.291Z,100689.34
2023-01-11T22:15:42.440Z,100676.75
2023-01-11T22:20:44.554Z,100637.47
2023-01-11T22:25:46.868Z,100651.91
2023-01-11T22:30:48.958Z,100660.78
2023-01-11T22:35:55.407Z,100668.66
2023-01-11T22:41:00.227Z,100676.22
2023-01-11T22:46:02.832Z,100664.03
2023-01-11T22:51:09.273Z,100683.06
2023-01-11T22:56:13.695Z,100652.97
2023-01-11T23:01:17.437Z,100700.94
2023-01-11T23:06:25.405Z,100689.59
2023-01-11T23:11:50.096Z,100677.56
2023-01-11T23:16:52.185Z,100708.97
2023-01-11T23:21:54.299Z,100673.56
2023-01-11T23:26:56.479Z,100690.28
2023-01-11T23:31:58.983Z,100690.09
2023-01-11T23:37:01.128Z,100686.44
2023-01-11T23:42:22.021Z,100689.41
2023-01-11T23:47:25.641Z,100691.59
2023-01-11T23:52:32.536Z,100704.47
2023-01-11T23:57:34.634Z,100683.59
